Time;durP1;ratioP1;P1;durP2;ratioP2;P2;SDS_P1;SDS_P2;PMS_P1;PMS_P2;Temp;Humidity;BMP_temperature;BMP_pressure;BME280_temperature;BME280_humidity;BME280_pressure;Samples;Min_cycle;Max_cycle;Signal;HPM_P1;HPM_P2
2022/12/25 00:01:13;;;;;;;12.15;7.65;;;;;;;;;;5068638;28;20032;-76
2022/12/25 00:03:39;;;;;;;13.32;6.28;;;;;;;;;;5039501;28;20029;-77
2022/12/25 00:06:06;;;;;;;11.10;7.95;;;;;;;;;;5069294;28;20344;-77
2022/12/25 00:08:32;;;;;;;17.08;10.18;;;;;;;;;;5049539;28;20422;-77
2022/12/25 00:11:02;;;;;;;13.52;9.75;;;;;;;;;;5065324;28;20063;-76
2022/12/25 00:13:28;;;;;;;16.63;9.73;;;;;;;;;;5041645;28;20506;-77
2022/12/25 00:15:54;;;;;;;15.00;7.93;;;;;;;;;;5064512;28;20111;-77
2022/12/25 00:18:20;;;;;;;10.52;6.18;;;;;;;;;;5050436;28;20131;-77
2022/12/25 00:20:55;;;;;;;12.80;5.63;;;;;;;;;;5068569;28;20024;-76
2022/12/25 00:23:21;;;;;;;10.02;5.90;;;;;;;;;;5068860;28;20055;-77
2022/12/25 00:25:47;;;;;;;11.80;5.45;;;;;;;;;;5049545;28;20546;-76
2022/12/25 00:28:13;;;;;;;11.18;6.70;;;;;;;;;;5067412;28;20064;-76
2022/12/25 00:30:39;;;;;;;8.85;5.38;;;;;;;;;;5048603;28;20036;-76
2022/12/25 00:33:06;;;;;;;33.70;18.63;;;;;;;;;;5067311;28;20086;-77
2022/12/25 00:35:33;;;;;;;40.67;18.98;;;;;;;;;;5039493;28;20078;-76
2022/12/25 00:37:59;;;;;;;31.83;16.25;;;;;;;;;;5062442;28;20033;-76
2022/12/25 00:40:25;;;;;;;9.32;4.93;;;;;;;;;;5060540;28;20542;-76
2022/12/25 00:42:51;;;;;;;16.85;9.23;;;;;;;;;;5059801;28;20036;-76
2022/12/25 00:45:17;;;;;;;28.25;16.33;;;;;;;;;;5059625;28;20036;-76
2022/12/25 00:47:43;;;;;;;14.30;8.00;;;;;;;;;;5070028;28;20020;-76
2022/12/25 00:50:09;;;;;;;10.25;6.78;;;;;;;;;;5068201;28;20036;-76
2022/12/25 00:52:35;;;;;;;13.35;7.15;;;;;;;;;;5044419;28;20042;-76
2022/12/25 00:55:01;;;;;;;13.48;5.80;;;;;;;;;;5053687;28;20052;-76
2022/12/25 00:57:27;;;;;;;10.57;4.90;;;;;;;;;;5049158;28;20033;-76
2022/12/25 00:59:53;;;;;;;10.60;5.65;;;;;;;;;;5065778;28;20036;-76
2022/12/25 01:02:22;;;;;;;8.50;5.68;;;;;;;;;;5070308;28;20631;-76
2022/12/25 01:04:48;;;;;;;9.93;5.32;;;;;;;;;;5060174;28;20521;-76
2022/12/25 01:07:15;;;;;;;12.63;7.10;;;;;;;;;;5060769;28;20029;-76
2022/12/25 01:12:26;;;;;;;13.80;7.00;;;;;;;;;;5066395;28;20047;-77
2022/12/25 01:14:52;;;;;;;13.73;8.30;;;;;;;;;;5067571;28;20043;-76
2022/12/25 01:17:18;;;;;;;12.38;6.85;;;;;;;;;;5047456;28;20033;-76
2022/12/25 01:19:44;;;;;;;9.68;6.45;;;;;;;;;;5049407;28;20034;-76
2022/12/25 01:22:10;;;;;;;8.23;3.80;;;;;;;;;;5049709;28;20025;-77
2022/12/25 01:24:36;;;;;;;15.95;8.43;;;;;;;;;;5068287;28;20584;-77
2022/12/25 01:27:02;;;;;;;15.48;9.93;;;;;;;;;;5067764;28;20032;-76
2022/12/25 01:29:28;;;;;;;23.27;11.70;;;;;;;;;;5065811;28;20033;-77
2022/12/25 01:31:54;;;;;;;17.75;11.57;;;;;;;;;;5065438;28;20036;-77
2022/12/25 01:34:20;;;;;;;9.57;6.15;;;;;;;;;;5047755;28;20090;-76
2022/12/25 01:36:46;;;;;;;13.32;5.97;;;;;;;;;;5057011;28;20037;-76
2022/12/25 01:39:12;;;;;;;13.52;7.13;;;;;;;;;;5047920;28;20037;-77
2022/12/25 01:41:38;;;;;;;6.80;3.92;;;;;;;;;;5066259;28;20073;-76
2022/12/25 01:44:04;;;;;;;11.48;4.93;;;;;;;;;;5064796;28;20036;-77
2022/12/25 01:46:31;;;;;;;8.65;5.78;;;;;;;;;;5066897;28;20037;-77
2022/12/25 01:48:58;;;;;;;8.65;5.15;;;;;;;;;;5067788;28;20723;-78
2022/12/25 01:51:28;;;;;;;12.60;6.97;;;;;;;;;;5051461;28;20123;-77
2022/12/25 01:53:56;;;;;;;10.20;6.13;;;;;;;;;;5071451;28;20052;-77
2022/12/25 01:56:22;;;;;;;10.25;5.68;;;;;;;;;;5044035;28;20110;-76
2022/12/25 01:58:48;;;;;;;9.95;3.65;;;;;;;;;;5068832;28;20158;-77
2022/12/25 02:01:15;;;;;;;8.32;4.40;;;;;;;;;;5060375;28;20036;-77
2022/12/25 02:03:41;;;;;;;7.78;4.75;;;;;;;;;;5051834;28;20379;-77
2022/12/25 02:06:08;;;;;;;9.63;5.65;;;;;;;;;;5064467;28;20025;-76
2022/12/25 02:08:34;;;;;;;9.27;5.18;;;;;;;;;;5071354;28;20631;-76
2022/12/25 02:11:00;;;;;;;89.47;41.08;;;;;;;;;;5071420;28;20108;-77
2022/12/25 02:13:26;;;;;;;15.20;7.35;;;;;;;;;;5046719;28;20025;-76
2022/12/25 02:15:52;;;;;;;26.10;13.05;;;;;;;;;;5066339;28;20578;-77
2022/12/25 02:18:18;;;;;;;17.75;8.90;;;;;;;;;;5049012;28;20045;-76
2022/12/25 02:20:50;;;;;;;8.60;5.28;;;;;;;;;;5063696;28;20573;-76
2022/12/25 02:23:35;;;;;;;9.15;4.45;;;;;;;;;;5043708;28;20626;-76
2022/12/25 02:26:00;;;;;;;8.15;3.47;;;;;;;;;;5070334;28;20075;-76
2022/12/25 02:28:29;;;;;;;15.88;8.63;;;;;;;;;;5064987;28;20036;-76
2022/12/25 02:31:12;;;;;;;11.13;5.90;;;;;;;;;;5070925;28;20040;-77
2022/12/25 02:34:03;;;;;;;7.72;2.85;;;;;;;;;;5063147;28;20071;-77
2022/12/25 02:36:40;;;;;;;7.50;2.42;;;;;;;;;;5069238;28;20029;-77
2022/12/25 02:42:23;;;;;;;18.15;9.50;;;;;;;;;;5028119;28;20067;-77
2022/12/25 03:07:02;;;;;;;11.35;5.68;;;;;;;;;;5069279;28;20124;-76
2022/12/25 03:12:18;;;;;;;14.05;5.72;;;;;;;;;;5059515;28;20147;-76
2022/12/25 03:17:30;;;;;;;7.32;2.90;;;;;;;;;;5069601;28;20051;-76
2022/12/25 03:28:12;;;;;;;10.82;3.83;;;;;;;;;;5064400;28;20052;-76
2022/12/25 03:31:10;;;;;;;8.57;3.10;;;;;;;;;;5042937;28;20033;-76
2022/12/25 03:36:44;;;;;;;5.53;2.53;;;;;;;;;;5036009;28;20036;-76
2022/12/25 04:37:26;;;;;;;8.05;3.53;;;;;;;;;;5062379;28;20051;-76
2022/12/25 04:39:51;;;;;;;9.48;3.67;;;;;;;;;;5060348;28;20046;-76
2022/12/25 04:42:17;;;;;;;6.40;3.25;;;;;;;;;;5059835;28;20359;-76
2022/12/25 04:44:44;;;;;;;5.70;2.55;;;;;;;;;;5068356;28;20032;-77
2022/12/25 04:47:10;;;;;;;5.75;3.20;;;;;;;;;;5067198;28;20115;-76
2022/12/25 04:49:36;;;;;;;7.70;4.97;;;;;;;;;;5067851;28;20044;-76
2022/12/25 04:52:02;;;;;;;7.85;4.25;;;;;;;;;;5067744;28;20041;-76
2022/12/25 04:54:28;;;;;;;10.25;5.90;;;;;;;;;;5066051;28;20095;-76
2022/12/25 04:56:54;;;;;;;7.72;4.60;;;;;;;;;;5068024;28;20451;-75
2022/12/25 04:59:20;;;;;;;13.25;7.50;;;;;;;;;;5064406;28;20028;-76
2022/12/25 05:01:46;;;;;;;73.60;12.68;;;;;;;;;;5059162;28;20028;-77
2022/12/25 05:04:12;;;;;;;11.68;7.95;;;;;;;;;;5057523;28;20075;-76
2022/12/25 05:06:39;;;;;;;49.40;10.38;;;;;;;;;;5052206;28;20024;-77
2022/12/25 05:09:05;;;;;;;15.05;8.23;;;;;;;;;;5065856;28;20039;-76
2022/12/25 05:11:31;;;;;;;18.45;9.43;;;;;;;;;;5047962;28;20457;-76
2022/12/25 05:13:57;;;;;;;13.35;8.20;;;;;;;;;;5067077;28;20036;-77
2022/12/25 05:16:24;;;;;;;33.10;11.77;;;;;;;;;;5046614;28;20043;-77
2022/12/25 05:18:50;;;;;;;20.65;8.35;;;;;;;;;;5065773;28;20115;-76
2022/12/25 05:21:16;;;;;;;36.05;8.05;;;;;;;;;;5057392;28;20511;-76
2022/12/25 05:23:47;;;;;;;30.65;10.05;;;;;;;;;;5061298;28;20063;-77
2022/12/25 05:26:14;;;;;;;68.63;14.60;;;;;;;;;;5065390;28;20063;-76
2022/12/25 05:28:40;;;;;;;23.35;10.13;;;;;;;;;;5041578;28;20040;-76
2022/12/25 05:31:06;;;;;;;196.68;21.48;;;;;;;;;;5066163;28;20036;-76
2022/12/25 05:33:32;;;;;;;9.07;6.60;;;;;;;;;;5064181;28;20024;-77
2022/12/25 05:35:58;;;;;;;104.40;13.27;;;;;;;;;;5066743;28;20123;-76
2022/12/25 05:38:24;;;;;;;210.77;18.67;;;;;;;;;;5067812;28;20071;-76
2022/12/25 05:40:51;;;;;;;32.47;11.32;;;;;;;;;;5063961;28;20511;-77
2022/12/25 05:43:18;;;;;;;50.90;12.10;;;;;;;;;;5065987;28;20024;-76
2022/12/25 05:45:44;;;;;;;197.95;18.60;;;;;;;;;;5062273;28;20036;-76
2022/12/25 05:48:10;;;;;;;77.70;12.85;;;;;;;;;;5036705;28;20510;-76
2022/12/25 05:50:37;;;;;;;70.70;14.68;;;;;;;;;;5066081;28;20029;-76
2022/12/25 05:53:07;;;;;;;20.02;10.15;;;;;;;;;;5056595;28;20055;-76
2022/12/25 05:55:33;;;;;;;76.78;14.98;;;;;;;;;;5058026;28;20056;-75
2022/12/25 05:57:59;;;;;;;72.43;18.67;;;;;;;;;;5058592;28;20036;-76
2022/12/25 06:00:26;;;;;;;73.15;18.77;;;;;;;;;;5059154;28;20510;-76
2022/12/25 06:02:52;;;;;;;80.70;25.45;;;;;;;;;;5045366;28;20033;-75
2022/12/25 06:05:18;;;;;;;125.22;28.63;;;;;;;;;;5046189;28;20047;-76
2022/12/25 06:07:44;;;;;;;71.47;27.10;;;;;;;;;;5066832;28;20032;-76
2022/12/25 06:10:10;;;;;;;61.97;24.88;;;;;;;;;;5067894;28;20064;-76
2022/12/25 06:12:36;;;;;;;70.35;26.27;;;;;;;;;;5057509;28;20041;-76
2022/12/25 06:15:02;;;;;;;59.05;25.55;;;;;;;;;;5063499;28;20048;-76
2022/12/25 06:17:28;;;;;;;48.22;23.70;;;;;;;;;;5058939;28;20111;-76
2022/12/25 06:19:54;;;;;;;49.58;23.10;;;;;;;;;;5063792;28;20135;-76
2022/12/25 06:22:20;;;;;;;53.35;22.70;;;;;;;;;;5062041;28;20082;-76
2022/12/25 06:24:46;;;;;;;47.20;21.40;;;;;;;;;;5062837;28;20168;-76
2022/12/25 06:27:12;;;;;;;101.28;31.83;;;;;;;;;;5046586;28;20516;-76
2022/12/25 06:29:38;;;;;;;49.65;22.30;;;;;;;;;;5066032;28;20036;-76
2022/12/25 06:32:04;;;;;;;65.43;27.83;;;;;;;;;;5045888;28;20040;-75
2022/12/25 06:34:30;;;;;;;59.25;24.23;;;;;;;;;;5062741;28;20043;-76
2022/12/25 06:36:56;;;;;;;66.90;26.48;;;;;;;;;;5063199;28;20036;-76
2022/12/25 06:39:24;;;;;;;43.80;20.50;;;;;;;;;;5063987;28;20035;-76
2022/12/25 06:41:50;;;;;;;51.92;21.58;;;;;;;;;;5069086;28;20032;-77
2022/12/25 06:44:16;;;;;;;102.78;29.38;;;;;;;;;;5049306;28;20032;-76
2022/12/25 06:46:42;;;;;;;42.95;19.48;;;;;;;;;;5064012;28;20036;-76
2022/12/25 06:49:09;;;;;;;51.30;21.60;;;;;;;;;;5068118;28;20052;-76
2022/12/25 06:51:35;;;;;;;103.25;27.33;;;;;;;;;;5066252;28;20032;-77
2022/12/25 06:54:02;;;;;;;64.57;23.60;;;;;;;;;;5068064;28;20048;-77
2022/12/25 06:56:28;;;;;;;33.33;18.00;;;;;;;;;;5067272;28;20032;-77
2022/12/25 06:58:59;;;;;;;100.25;28.48;;;;;;;;;;5067020;28;20032;-77
2022/12/25 07:01:27;;;;;;;73.28;24.85;;;;;;;;;;5067417;28;20078;-77
2022/12/25 07:03:55;;;;;;;48.60;21.35;;;;;;;;;;5065504;28;20062;-76
2022/12/25 07:06:22;;;;;;;74.30;26.33;;;;;;;;;;5045938;28;20028;-76
2022/12/25 07:08:48;;;;;;;87.65;31.40;;;;;;;;;;5063811;28;20132;-76
2022/12/25 07:11:14;;;;;;;69.68;26.83;;;;;;;;;;5063959;28;20036;-76
2022/12/25 07:13:40;;;;;;;96.45;31.27;;;;;;;;;;5062443;28;20043;-76
2022/12/25 07:16:06;;;;;;;51.08;24.17;;;;;;;;;;5061995;28;20036;-76
2022/12/25 07:18:33;;;;;;;67.72;27.35;;;;;;;;;;5063402;28;20064;-77
2022/12/25 07:21:04;;;;;;;51.67;23.25;;;;;;;;;;5060840;28;20025;-75
2022/12/25 07:23:30;;;;;;;52.65;24.75;;;;;;;;;;5063168;28;20029;-75
2022/12/25 07:25:57;;;;;;;67.95;27.98;;;;;;;;;;5040464;28;20028;-76
2022/12/25 07:28:23;;;;;;;57.25;25.65;;;;;;;;;;5044350;28;20166;-75
2022/12/25 07:30:49;;;;;;;51.90;22.33;;;;;;;;;;5063989;28;21948;-75
2022/12/25 07:33:16;;;;;;;59.60;25.98;;;;;;;;;;5059210;28;20494;-76
2022/12/25 07:35:42;;;;;;;44.78;22.95;;;;;;;;;;5059867;28;20139;-75
2022/12/25 07:38:08;;;;;;;44.80;22.60;;;;;;;;;;5064947;28;20082;-75
2022/12/25 07:40:34;;;;;;;72.55;28.85;;;;;;;;;;5062622;28;20131;-75
2022/12/25 07:43:00;;;;;;;72.28;29.95;;;;;;;;;;5041923;28;20471;-75
2022/12/25 07:45:26;;;;;;;49.53;23.30;;;;;;;;;;5060885;28;20029;-76
2022/12/25 07:47:52;;;;;;;65.18;26.17;;;;;;;;;;5065267;28;20158;-76
2022/12/25 07:50:18;;;;;;;51.92;24.45;;;;;;;;;;5058319;28;20029;-75
2022/12/25 07:52:45;;;;;;;51.80;24.33;;;;;;;;;;5065469;28;20040;-76
2022/12/25 07:55:11;;;;;;;51.10;24.73;;;;;;;;;;5063425;28;20056;-75
2022/12/25 07:57:37;;;;;;;39.42;20.50;;;;;;;;;;5061511;28;20125;-75
2022/12/25 08:00:04;;;;;;;45.13;21.98;;;;;;;;;;5064498;28;20033;-75
2022/12/25 08:02:30;;;;;;;43.42;22.30;;;;;;;;;;5066057;28;20493;-75
2022/12/25 08:04:56;;;;;;;40.80;22.67;;;;;;;;;;5061674;28;20037;-75
2022/12/25 08:07:22;;;;;;;45.28;21.38;;;;;;;;;;5047099;28;20037;-76
2022/12/25 08:09:48;;;;;;;48.10;22.70;;;;;;;;;;5044453;28;21063;-76
2022/12/25 08:12:15;;;;;;;66.05;27.70;;;;;;;;;;5041844;28;20387;-76
2022/12/25 08:14:41;;;;;;;38.38;20.45;;;;;;;;;;5038269;28;20032;-75
2022/12/25 08:17:07;;;;;;;40.25;19.90;;;;;;;;;;5061742;28;20115;-75
2022/12/25 08:19:33;;;;;;;43.45;23.05;;;;;;;;;;5061963;28;20036;-75
2022/12/25 08:21:59;;;;;;;44.20;22.58;;;;;;;;;;5060540;28;20036;-76
2022/12/25 08:24:25;;;;;;;38.95;22.70;;;;;;;;;;5061432;28;20024;-75
2022/12/25 08:26:51;;;;;;;38.70;23.25;;;;;;;;;;5063451;28;20478;-75
2022/12/25 08:29:17;;;;;;;36.83;21.80;;;;;;;;;;5062136;28;20376;-75
2022/12/25 08:31:43;;;;;;;26.52;17.80;;;;;;;;;;5062711;28;20086;-75
2022/12/25 08:34:10;;;;;;;22.67;13.98;;;;;;;;;;5060291;28;20083;-75
2022/12/25 08:36:36;;;;;;;26.50;16.23;;;;;;;;;;5062120;28;20025;-75
2022/12/25 08:39:02;;;;;;;30.25;18.05;;;;;;;;;;5061980;28;20078;-75
2022/12/25 08:41:28;;;;;;;30.13;19.17;;;;;;;;;;5063211;28;20846;-75
2022/12/25 08:43:54;;;;;;;30.60;17.40;;;;;;;;;;5058168;28;20032;-74
2022/12/25 08:46:20;;;;;;;29.83;17.45;;;;;;;;;;5063438;28;20033;-74
2022/12/25 08:48:47;;;;;;;29.65;17.45;;;;;;;;;;5060601;28;20065;-75
2022/12/25 08:51:17;;;;;;;42.90;23.63;;;;;;;;;;5059590;28;20043;-75
2022/12/25 08:53:43;;;;;;;46.70;27.90;;;;;;;;;;5060075;28;20062;-73
2022/12/25 08:56:10;;;;;;;42.53;23.95;;;;;;;;;;5061123;28;20034;-73
2022/12/25 08:58:36;;;;;;;34.65;20.63;;;;;;;;;;5058735;28;20350;-74
2022/12/25 09:01:02;;;;;;;25.52;16.98;;;;;;;;;;5060471;28;20032;-75
2022/12/25 09:03:30;;;;;;;29.50;16.77;;;;;;;;;;5058815;28;20031;-75
2022/12/25 09:06:01;;;;;;;25.73;17.17;;;;;;;;;;5061706;28;20067;-74
2022/12/25 09:08:27;;;;;;;25.35;15.55;;;;;;;;;;5062182;28;20759;-74
2022/12/25 09:10:53;;;;;;;25.60;15.95;;;;;;;;;;5060034;28;20111;-74
2022/12/25 09:13:19;;;;;;;24.02;15.32;;;;;;;;;;5057614;28;20024;-75
2022/12/25 09:15:45;;;;;;;20.52;14.07;;;;;;;;;;5042060;28;20225;-75
2022/12/25 09:18:11;;;;;;;21.90;15.77;;;;;;;;;;5041476;28;20024;-75
2022/12/25 09:20:37;;;;;;;24.70;17.08;;;;;;;;;;5060235;28;20044;-75
2022/12/25 09:23:03;;;;;;;30.50;18.10;;;;;;;;;;5060973;28;20039;-75
2022/12/25 09:25:29;;;;;;;23.73;16.27;;;;;;;;;;5053881;28;20044;-74
2022/12/25 09:27:55;;;;;;;26.88;15.70;;;;;;;;;;5059240;28;20047;-75
2022/12/25 09:30:21;;;;;;;24.23;16.92;;;;;;;;;;5055905;28;20056;-75
2022/12/25 09:32:47;;;;;;;22.20;15.25;;;;;;;;;;5058153;28;20230;-74
2022/12/25 09:35:16;;;;;;;20.73;14.75;;;;;;;;;;5057552;28;20756;-73
2022/12/25 09:37:42;;;;;;;23.58;16.67;;;;;;;;;;5059255;28;20032;-73
2022/12/25 09:40:10;;;;;;;32.75;21.23;;;;;;;;;;5034684;28;20037;-73
2022/12/25 09:42:36;;;;;;;26.83;18.88;;;;;;;;;;5057123;28;20025;-74
2022/12/25 09:45:05;;;;;;;24.92;15.02;;;;;;;;;;5055099;28;20060;-74
2022/12/25 09:47:35;;;;;;;23.83;15.63;;;;;;;;;;5056586;28;20051;-74
2022/12/25 09:50:01;;;;;;;21.35;13.80;;;;;;;;;;5061258;28;20060;-75
2022/12/25 09:52:35;;;;;;;21.67;15.13;;;;;;;;;;5060340;28;20068;-75
2022/12/25 09:55:04;;;;;;;21.65;14.77;;;;;;;;;;5057506;28;20075;-75
2022/12/25 09:57:32;;;;;;;23.75;16.15;;;;;;;;;;5061465;28;20504;-75
2022/12/25 09:59:58;;;;;;;25.88;16.15;;;;;;;;;;5057911;28;20083;-74
2022/12/25 10:02:27;;;;;;;30.08;21.38;;;;;;;;;;5059511;28;20036;-74
2022/12/25 10:05:02;;;;;;;29.38;19.75;;;;;;;;;;5060666;28;20033;-74
2022/12/25 10:07:47;;;;;;;37.13;23.75;;;;;;;;;;5059852;28;20024;-74
2022/12/25 10:10:32;;;;;;;26.42;17.67;;;;;;;;;;5061194;28;20033;-74
2022/12/25 10:13:17;;;;;;;26.58;18.75;;;;;;;;;;5040308;28;20399;-74
2022/12/25 10:15:52;;;;;;;27.58;17.73;;;;;;;;;;5063273;28;20056;-74
2022/12/25 10:18:30;;;;;;;23.13;16.23;;;;;;;;;;5065691;28;20037;-74
2022/12/25 10:20:57;;;;;;;25.77;18.33;;;;;;;;;;5066165;28;20110;-74
2022/12/25 10:23:28;;;;;;;24.80;17.83;;;;;;;;;;5066817;28;20040;-75
2022/12/25 10:25:54;;;;;;;23.90;17.42;;;;;;;;;;5049389;28;20024;-76
2022/12/25 10:28:41;;;;;;;30.42;20.02;;;;;;;;;;5066540;28;20043;-75
2022/12/25 10:31:26;;;;;;;43.80;25.13;;;;;;;;;;5063467;28;20025;-75
2022/12/25 10:33:53;;;;;;;28.95;19.75;;;;;;;;;;5066598;28;20052;-75
2022/12/25 10:36:20;;;;;;;25.40;18.98;;;;;;;;;;5066697;28;20075;-75
2022/12/25 10:38:47;;;;;;;31.55;21.58;;;;;;;;;;5053587;28;20472;-75
2022/12/25 10:41:33;;;;;;;32.00;20.67;;;;;;;;;;5061380;28;20033;-75
2022/12/25 10:43:59;;;;;;;34.63;22.23;;;;;;;;;;5064527;28;20044;-75
2022/12/25 10:46:26;;;;;;;33.20;24.02;;;;;;;;;;5060238;28;20028;-75
2022/12/25 10:48:54;;;;;;;29.83;21.20;;;;;;;;;;5062920;28;20111;-75
2022/12/25 10:51:26;;;;;;;32.15;22.55;;;;;;;;;;5040627;28;20028;-75
2022/12/25 10:53:52;;;;;;;26.63;20.08;;;;;;;;;;5063229;28;20036;-76
2022/12/25 10:56:19;;;;;;;29.30;20.85;;;;;;;;;;5048447;28;20383;-75
2022/12/25 10:58:45;;;;;;;34.50;25.00;;;;;;;;;;5045673;28;20123;-75
2022/12/25 11:01:11;;;;;;;40.10;26.73;;;;;;;;;;5064382;28;20824;-75
2022/12/25 11:03:39;;;;;;;33.70;25.67;;;;;;;;;;5062708;28;20032;-74
2022/12/25 11:06:09;;;;;;;33.35;24.45;;;;;;;;;;5063232;28;20035;-75
2022/12/25 11:08:35;;;;;;;33.58;25.67;;;;;;;;;;5064538;28;20040;-74
2022/12/25 11:11:04;;;;;;;34.88;25.15;;;;;;;;;;5058437;28;20021;-75
2022/12/25 11:13:32;;;;;;;38.55;28.52;;;;;;;;;;5065316;28;20451;-74
2022/12/25 11:16:28;;;;;;;31.23;24.65;;;;;;;;;;5060632;28;20033;-75
2022/12/25 11:18:54;;;;;;;24.00;17.02;;;;;;;;;;5024099;28;20048;-75
2022/12/25 11:21:25;;;;;;;18.95;14.27;;;;;;;;;;5058722;28;20033;-75
2022/12/25 11:23:56;;;;;;;18.27;14.65;;;;;;;;;;5043060;28;20101;-74
2022/12/25 11:26:22;;;;;;;16.70;13.43;;;;;;;;;;5059294;28;20111;-74
2022/12/25 11:28:49;;;;;;;16.40;12.95;;;;;;;;;;5063418;28;20414;-75
2022/12/25 11:31:20;;;;;;;17.75;13.10;;;;;;;;;;5065059;28;20052;-75
2022/12/25 11:34:05;;;;;;;18.80;15.93;;;;;;;;;;5044582;28;20043;-74
2022/12/25 11:36:31;;;;;;;18.90;14.57;;;;;;;;;;5059235;28;20032;-75
2022/12/25 11:39:00;;;;;;;18.55;13.93;;;;;;;;;;5044002;28;20048;-75
2022/12/25 11:41:30;;;;;;;17.50;12.02;;;;;;;;;;5061520;28;20020;-75
2022/12/25 11:43:58;;;;;;;16.15;12.43;;;;;;;;;;5045242;28;20467;-74
2022/12/25 11:46:24;;;;;;;19.02;13.70;;;;;;;;;;5063864;28;20502;-75
2022/12/25 11:48:55;;;;;;;17.45;13.38;;;;;;;;;;5061134;28;20108;-75
2022/12/25 11:51:24;;;;;;;15.77;11.60;;;;;;;;;;5044507;28;20036;-75
2022/12/25 11:53:54;;;;;;;16.55;12.00;;;;;;;;;;5064354;28;20035;-74
2022/12/25 11:56:22;;;;;;;18.50;12.32;;;;;;;;;;5057782;28;20032;-74
2022/12/25 11:59:06;;;;;;;15.80;12.60;;;;;;;;;;5065141;28;20028;-74
2022/12/25 12:01:35;;;;;;;18.33;12.25;;;;;;;;;;5065202;28;20471;-75
2022/12/25 12:04:01;;;;;;;18.85;12.45;;;;;;;;;;5064714;28;20317;-74
2022/12/25 12:06:46;;;;;;;16.00;12.43;;;;;;;;;;5064479;28;20476;-75
2022/12/25 12:09:21;;;;;;;14.73;11.27;;;;;;;;;;5064232;28;20047;-75
2022/12/25 12:11:53;;;;;;;14.80;10.30;;;;;;;;;;5043706;28;20810;-75
2022/12/25 12:14:19;;;;;;;14.52;10.38;;;;;;;;;;5042283;28;20059;-74
2022/12/25 12:16:45;;;;;;;13.15;9.20;;;;;;;;;;5044650;28;20071;-75
2022/12/25 12:19:24;;;;;;;13.55;10.52;;;;;;;;;;5042253;28;20036;-74
2022/12/25 12:21:51;;;;;;;15.90;11.95;;;;;;;;;;5064727;28;20378;-75
2022/12/25 12:24:21;;;;;;;15.80;12.40;;;;;;;;;;5060671;28;20044;-75
2022/12/25 12:26:58;;;;;;;14.02;11.48;;;;;;;;;;5054313;28;20028;-74
2022/12/25 12:29:26;;;;;;;15.30;12.13;;;;;;;;;;5045380;28;20036;-75
2022/12/25 12:31:53;;;;;;;14.85;11.82;;;;;;;;;;5060135;28;20749;-74
2022/12/25 12:34:22;;;;;;;17.30;13.82;;;;;;;;;;5060369;28;20032;-75
2022/12/25 12:36:50;;;;;;;16.95;11.88;;;;;;;;;;5061624;28;20383;-74
2022/12/25 12:39:24;;;;;;;15.27;12.07;;;;;;;;;;5060671;28;20109;-74
2022/12/25 12:41:50;;;;;;;15.57;11.00;;;;;;;;;;5059031;28;20028;-74
2022/12/25 12:44:17;;;;;;;14.77;11.50;;;;;;;;;;5061295;28;20064;-74
2022/12/25 12:46:50;;;;;;;14.15;11.00;;;;;;;;;;5053787;28;20052;-74
2022/12/25 12:49:23;;;;;;;14.65;11.70;;;;;;;;;;5056681;28;20481;-75
2022/12/25 12:51:49;;;;;;;;;;;;;;;;;;5062021;28;20036;-75
2022/12/25 12:54:19;;;;;;;12.30;9.80;;;;;;;;;;5044187;28;20287;-74
2022/12/25 12:56:57;;;;;;;13.13;9.18;;;;;;;;;;5061354;28;20725;-74
2022/12/25 12:59:23;;;;;;;13.80;10.15;;;;;;;;;;5060748;28;20423;-74
2022/12/25 13:01:49;;;;;;;14.20;10.43;;;;;;;;;;5062739;28;20039;-75
2022/12/25 13:04:31;;;;;;;13.93;11.23;;;;;;;;;;5042372;28;20386;-75
2022/12/25 13:07:19;;;;;;;17.27;13.57;;;;;;;;;;5056259;28;20472;-75
2022/12/25 13:09:45;;;;;;;16.90;12.32;;;;;;;;;;5061257;28;20106;-75
2022/12/25 13:12:13;;;;;;;17.02;13.15;;;;;;;;;;5065107;28;20067;-75
2022/12/25 13:14:43;;;;;;;17.38;13.40;;;;;;;;;;5057959;28;20079;-75
2022/12/25 13:17:09;;;;;;;16.92;13.25;;;;;;;;;;5063774;28;20110;-75
2022/12/25 13:19:36;;;;;;;16.15;12.52;;;;;;;;;;5041003;28;20040;-75
2022/12/25 13:22:06;;;;;;;14.93;12.00;;;;;;;;;;5052595;28;20017;-74
2022/12/25 13:24:36;;;;;;;15.45;12.13;;;;;;;;;;5061164;28;20041;-74
2022/12/25 13:27:20;;;;;;;20.77;16.65;;;;;;;;;;5060280;28;20024;-75
2022/12/25 13:29:46;;;;;;;20.67;17.25;;;;;;;;;;5057928;28;20064;-74
2022/12/25 13:32:31;;;;;;;18.95;15.32;;;;;;;;;;5062442;28;20025;-74
2022/12/25 13:34:58;;;;;;;17.60;12.18;;;;;;;;;;5057550;28;20050;-75
2022/12/25 13:37:26;;;;;;;16.27;10.93;;;;;;;;;;5044139;28;20028;-74
2022/12/25 13:39:59;;;;;;;15.15;11.27;;;;;;;;;;5061031;28;20045;-75
2022/12/25 13:42:27;;;;;;;14.23;10.63;;;;;;;;;;5061811;28;20033;-75
2022/12/25 13:44:55;;;;;;;13.85;10.23;;;;;;;;;;5062768;28;20135;-75
2022/12/25 13:47:21;;;;;;;15.32;10.60;;;;;;;;;;5063836;28;20025;-75
2022/12/25 13:49:47;;;;;;;18.20;11.23;;;;;;;;;;5064185;28;20079;-75
2022/12/25 13:52:19;;;;;;;13.48;9.20;;;;;;;;;;5066033;28;20033;-75
2022/12/25 13:54:54;;;;;;;21.07;12.83;;;;;;;;;;5065254;28;20075;-75
2022/12/25 13:57:22;;;;;;;18.48;13.05;;;;;;;;;;5061837;28;20039;-75
2022/12/25 13:59:48;;;;;;;16.50;11.00;;;;;;;;;;5064864;28;20064;-75
2022/12/25 14:02:19;;;;;;;19.40;12.65;;;;;;;;;;5068849;28;20036;-75
2022/12/25 14:04:45;;;;;;;21.58;13.63;;;;;;;;;;5067030;28;20067;-76
2022/12/25 14:07:11;;;;;;;26.25;15.70;;;;;;;;;;5049327;28;20033;-74
2022/12/25 14:09:39;;;;;;;21.83;13.60;;;;;;;;;;5067267;28;20036;-76
2022/12/25 14:12:05;;;;;;;14.35;8.73;;;;;;;;;;5068983;28;20033;-75
2022/12/25 14:14:31;;;;;;;13.50;8.43;;;;;;;;;;5065704;28;20032;-75
2022/12/25 14:16:58;;;;;;;13.93;7.65;;;;;;;;;;5067717;28;20036;-75
2022/12/25 14:19:27;;;;;;;11.90;7.50;;;;;;;;;;5066372;28;20416;-75
2022/12/25 14:21:55;;;;;;;10.75;5.88;;;;;;;;;;5066982;28;20044;-75
2022/12/25 14:24:24;;;;;;;10.13;6.28;;;;;;;;;;5068489;28;20036;-75
2022/12/25 14:26:56;;;;;;;9.13;5.15;;;;;;;;;;5067527;28;20033;-75
2022/12/25 14:29:22;;;;;;;10.63;6.03;;;;;;;;;;5067969;28;20459;-75
2022/12/25 14:31:48;;;;;;;17.05;6.55;;;;;;;;;;5060641;28;20496;-75
2022/12/25 14:34:24;;;;;;;14.10;7.03;;;;;;;;;;5064246;28;20028;-75
2022/12/25 14:36:51;;;;;;;8.95;6.55;;;;;;;;;;5066830;28;20121;-74
2022/12/25 14:39:27;;;;;;;8.90;6.05;;;;;;;;;;5064226;28;20035;-74
2022/12/25 14:41:53;;;;;;;9.35;6.30;;;;;;;;;;5049744;28;20032;-75
2022/12/25 14:44:28;;;;;;;12.05;6.22;;;;;;;;;;5065222;28;20154;-74
2022/12/25 14:47:04;;;;;;;8.95;6.40;;;;;;;;;;5066051;28;20085;-75
2022/12/25 14:49:31;;;;;;;11.18;7.97;;;;;;;;;;5068871;28;20151;-74
2022/12/25 14:51:57;;;;;;;10.57;7.00;;;;;;;;;;5063888;28;20087;-75
2022/12/25 14:54:24;;;;;;;10.45;6.32;;;;;;;;;;5068134;28;20049;-74
2022/12/25 14:56:52;;;;;;;9.05;5.68;;;;;;;;;;5065419;28;20065;-74
2022/12/25 14:59:20;;;;;;;10.30;6.75;;;;;;;;;;5066098;28;20060;-74
2022/12/25 15:01:50;;;;;;;12.25;7.90;;;;;;;;;;5063622;28;20043;-74
2022/12/25 15:04:17;;;;;;;12.63;7.22;;;;;;;;;;5060507;28;20040;-74
2022/12/25 15:06:52;;;;;;;12.00;8.55;;;;;;;;;;5068360;28;20029;-74
2022/12/25 15:09:18;;;;;;;11.85;8.40;;;;;;;;;;5066218;28;20136;-75
2022/12/25 15:11:48;;;;;;;12.50;8.15;;;;;;;;;;5046236;28;20060;-74
2022/12/25 15:14:14;;;;;;;16.02;9.90;;;;;;;;;;5049056;28;20044;-74
2022/12/25 15:16:41;;;;;;;15.07;10.00;;;;;;;;;;5065384;28;20043;-74
2022/12/25 15:19:08;;;;;;;17.52;12.07;;;;;;;;;;5065634;28;20344;-75
2022/12/25 15:21:35;;;;;;;16.25;12.20;;;;;;;;;;5045661;28;20101;-74
2022/12/25 15:24:01;;;;;;;15.77;11.75;;;;;;;;;;5067490;28;20037;-75
2022/12/25 15:26:28;;;;;;;21.15;13.00;;;;;;;;;;5061488;28;20040;-75
2022/12/25 15:28:54;;;;;;;22.25;13.85;;;;;;;;;;5049351;28;20040;-74
2022/12/25 15:31:20;;;;;;;21.60;18.08;;;;;;;;;;5060569;28;20056;-75
2022/12/25 15:33:47;;;;;;;22.40;17.77;;;;;;;;;;5064687;28;20070;-74
2022/12/25 15:36:13;;;;;;;20.35;15.88;;;;;;;;;;5064701;28;20089;-74
2022/12/25 15:38:39;;;;;;;17.48;14.23;;;;;;;;;;5056222;28;20463;-74
2022/12/25 15:42:09;;;;;;;19.05;14.45;;;;;;;;;;5067101;28;20069;-75
2022/12/25 15:43:57;;;;;;;15.38;10.70;;;;;;;;;;5059508;28;20045;-74
2022/12/25 15:46:23;;;;;;;15.20;11.48;;;;;;;;;;5066978;28;20033;-74
2022/12/25 15:48:49;;;;;;;16.95;11.02;;;;;;;;;;5066910;28;20032;-74
2022/12/25 15:51:15;;;;;;;17.77;10.38;;;;;;;;;;5063521;28;20033;-75
2022/12/25 15:53:41;;;;;;;18.15;12.25;;;;;;;;;;5065522;28;20052;-74
2022/12/25 15:56:09;;;;;;;16.70;12.95;;;;;;;;;;5062427;28;20036;-74
2022/12/25 15:58:35;;;;;;;19.65;11.43;;;;;;;;;;5065918;28;20040;-75
2022/12/25 16:01:01;;;;;;;14.20;10.23;;;;;;;;;;5057718;28;20478;-74
2022/12/25 16:03:27;;;;;;;15.73;9.90;;;;;;;;;;5065752;28;20032;-75
2022/12/25 16:05:53;;;;;;;14.77;9.02;;;;;;;;;;5064673;28;20119;-74
2022/12/25 16:08:19;;;;;;;17.17;9.90;;;;;;;;;;5066200;28;20736;-74
2022/12/25 16:10:45;;;;;;;14.27;8.88;;;;;;;;;;5043738;28;20036;-74
2022/12/25 16:13:12;;;;;;;13.00;8.90;;;;;;;;;;5061619;28;20036;-74